Latest Conditions
At L.F.Wade Int. Airport
Recorded at 7:55 am
Mostly Cloudy
Temp.: 
28°C/82°F
Humidity: 
81%
Wind: 
VRB 2KT
or 2mph
UV Index: 
0
Island Observations
 
Observations
Sunday, August 18, 2019

Observations are in local time and taken at least once an hour, or upon the start and end of specified events such as showers and thunderstorms.

Time Sky / Weather Wind Speed/Gusts Temp. R.H. Pressure
     knots (mph)  °C (°F)  %  mb / "Hg
 07:55 Mostly Cloudy  VRB 2/0 (2/0) 28(82) 81 1022 / 30.19
 06:55 Partly Cloudy  S 2/0 (2/0) 27(81) 85 1022 / 30.18
 05:55 Mostly Cloudy  S 4/0 (5/0) 27(81) 84 1022 / 30.18
 04:55 Mostly Cloudy  S 3/0 (3/0) 27(81) 85 1022 / 30.17
 03:55 Mostly Cloudy  VRB 2/0 (2/0) 28(82) 78 1022 / 30.18
 02:55 Mostly Cloudy  SSE 4/0 (5/0) 28(82) 78 1022 / 30.18
 01:55 Mostly Cloudy  SSE 6/0 (7/0) 28(82) 82 1022 / 30.18
 00:55 Mostly Cloudy  SE 5/0 (6/0) 28(82) 85 1022 / 30.19
 23:55 Mostly Cloudy  SE 7/0 (8/0) 28(82) 79 1023 / 30.20
 22:55 Mostly Cloudy  SE 4/0 (5/0) 28(82) 82 1023 / 30.21
 21:55 Mostly Cloudy  SE 5/0 (6/0) 28(82) 82 1023 / 30.22
 20:55 Mostly Cloudy  SE 3/0 (3/0) 28(82) 79 1023 / 30.20
 19:55 Mostly Cloudy  ESE 3/0 (3/0) 28(83) 78 1023 / 30.20
 18:55 Mostly Cloudy  N 5/0 (6/0) 28(83) 78 1022 / 30.19
 17:55 Mostly Cloudy  NW 4/0 (5/0) 29(84) 77 1023 / 30.20
 16:55 Mostly Cloudy  SSE 5/0 (6/0) 29(85) 75 1023 / 30.20
 15:55 Mostly Cloudy  SSE 6/0 (7/0) 29(85) 76 1023 / 30.21
 14:55 Mostly Cloudy  SSE 5/0 (6/0) 30(85) 77 1023 / 30.22
 13:55 Mostly Cloudy  S 6/0 (7/0) 30(85) 73 1024 / 30.23
 12:55 Mostly Cloudy  SSE 6/0 (7/0) 29(85) 75 1024 / 30.23
 11:55 Mostly Cloudy  SSE 7/0 (8/0) 29(85) 75 1024 / 30.23
 10:55 Partly Cloudy  SE 4/0 (5/0) 29(84) 75 1023 / 30.22
 09:55 Partly Cloudy  S 3/0 (3/0) 28(83) 80 1023 / 30.22
 08:55 Few Clouds  VRB 2/0 (2/0) 28(83) 80 1023 / 30.20
 07:55 Few Clouds  SSW 3/0 (3/0) 27(81) 82 1023 / 30.20
 06:55 Few Clouds  WSW 3/0 (3/0) 26(79) 88 1023 / 30.20
 05:55 Few Clouds  W 3/0 (3/0) 26(80) 88 1022 / 30.19
 04:55 Few Clouds  SW 4/0 (5/0) 26(80) 88 1023 / 30.20
 03:55 Few Clouds  SW 4/0 (5/0) 27(81) 86 1023 / 30.20
 02:55 Few Clouds  SSW 7/0 (8/0) 27(81) 86 1023 / 30.20
 01:55 Few Clouds  SSW 7/0 (8/0) 27(81) 87 1023 / 30.20
 00:55 Few Clouds  SSW 8/0 (9/0) 27(81) 86 1023 / 30.21
 23:55 Few Clouds  SSW 7/0 (8/0) 27(81) 86 1023 / 30.21
 22:55 Few Clouds  SSW 7/0 (8/0) 28(82) 85 1023 / 30.21
 21:55 Few Clouds  SW 6/0 (7/0) 28(82) 84 1023 / 30.20
 20:55 Partly Cloudy  SSW 8/0 (9/0) 28(83) 82 1023 / 30.20
 19:55 Few Clouds  SW 5/0 (6/0) 29(84) 78 1022 / 30.19
 18:55 Few Clouds  SSW 7/0 (8/0) 29(85) 75 1022 / 30.19
 17:55 Few Clouds  SSW 8/0 (9/0) 29(85) 75 1023 / 30.20
 16:55 Few Clouds  SSW 8/0 (9/0) 30(86) 76 1023 / 30.20
 15:55 Few Clouds  SW 7/0 (8/0) 30(86) 72 1023 / 30.21
 14:55 Few Clouds  W 9/0 (10/0) 30(86) 75 1023 / 30.21
 13:55 Few Clouds  W 8/0 (9/0) 30(85) 75 1023 / 30.22
 12:55 Few Clouds  W 9/0 (10/0) 30(85) 80 1023 / 30.22
 11:55 Partly Cloudy  W 9/0 (10/0) 29(85) 78 1023 / 30.22
 10:55 Few Clouds  WSW 9/0 (10/0) 29(85) 79 1023 / 30.21
 09:55 Partly Cloudy  SW 11/0 (13/0) 28(83) 82 1023 / 30.20
 08:55 Partly Cloudy  WSW 10/0 (12/0) 28(83) 82 1022 / 30.19
 07:55 Few Clouds  WSW 9/0 (10/0) 28(82) 84 1022 / 30.19
 06:55 Partly Cloudy  SW 11/0 (13/0) 27(81) 88 1022 / 30.18
 05:55 Mostly Cloudy Showers SW 11/0 (13/0) 27(81) 86 1022 / 30.17
 04:55 Few Clouds  SW 9/0 (10/0) 27(81) 86 1022 / 30.17
 03:55 Partly Cloudy Showers SW 12/0 (14/0) 27(81) 88 1022 / 30.17
 02:55 Partly Cloudy  SW 11/0 (13/0) 28(82) 88 1022 / 30.18
 01:55 Few Clouds  SW 11/0 (13/0) 28(82) 87 1022 / 30.18
 00:55 Partly Cloudy  SW 12/0 (14/0) 28(82) 87 1022 / 30.19
 23:55 Few Clouds  SSW 12/0 (14/0) 28(82) 86 1022 / 30.19
 22:55 Few Clouds  SSW 12/0 (14/0) 28(82) 86 1022 / 30.19
 21:55 Partly Cloudy  SW 11/0 (13/0) 28(82) 85 1022 / 30.18
 20:55 Partly Cloudy  SW 9/0 (10/0) 28(83) 85 1022 / 30.17
 19:55 Mostly Cloudy  SW 10/0 (12/0) 28(83) 80 1022 / 30.17
 18:55 Partly Cloudy  SW 11/0 (13/0) 29(85) 77 1021 / 30.16
 17:55 Partly Cloudy  SW 13/0 (15/0) 30(86) 75 1021 / 30.16
 16:55 Partly Cloudy  SSW 14/0 (16/0) 30(86) 72 1021 / 30.15
 15:55 Partly Cloudy  SSW 14/0 (16/0) 30(85) 76 1021 / 30.16
 14:55 Partly Cloudy  SSW 14/0 (16/0) 30(86) 75 1022 / 30.17
 13:55 Partly Cloudy  SSW 14/0 (16/0) 30(85) 76 1022 / 30.18
 12:55 Partly Cloudy  SSW 14/0 (16/0) 30(85) 76 1022 / 30.19
 11:55 Partly Cloudy  SSW 14/0 (16/0) 30(87) 71 1022 / 30.19
 10:55 Partly Cloudy  SSW 15/0 (17/0) 30(85) 75 1022 / 30.19
 09:55 Partly Cloudy  SSW 14/0 (16/0) 29(85) 78 1022 / 30.17
 08:55 Partly Cloudy  SSW 15/0 (17/0) 28(83) 79 1022 / 30.17
 07:55 Partly Cloudy  SW 13/0 (15/0) 28(82) 83 1021 / 30.15
 06:55 Mostly Cloudy Showers SSW 14/0 (16/0) 27(81) 87 1021 / 30.15
 05:55 Mostly Cloudy Showers SSW 15/0 (17/0) 28(82) 85 1021 / 30.14
 04:55 Partly Cloudy  SW 15/0 (17/0) 28(82) 83 1021 / 30.14
 03:55 Mostly Cloudy Showers SSW 14/0 (16/0) 28(82) 86 1020 / 30.13
 02:55 Mostly Cloudy  SSW 16/0 (18/0) 28(82) 85 1020 / 30.13
 01:55 Mostly Cloudy  SSW 16/0 (18/0) 28(82) 86 1021 / 30.14
 00:55 Mostly Cloudy  SSW 14/0 (16/0) 28(82) 85 1021 / 30.15
 23:55 Mostly Cloudy  SSW 15/0 (17/0) 28(82) 85 1021 / 30.15
 22:55 Mostly Cloudy  SSW 15/0 (17/0) 28(82) 84 1021 / 30.16
 21:55 Mostly Cloudy  SSW 15/0 (17/0) 28(82) 86 1021 / 30.15
 20:55 Mostly Cloudy  SSW 15/0 (17/0) 28(83) 81 1021 / 30.15
 19:55 Mostly Cloudy  SSW 13/0 (15/0) 28(83) 81 1021 / 30.14
 18:55 Mostly Cloudy  SSW 13/0 (15/0) 29(84) 80 1020 / 30.13
 17:55 Mostly Cloudy  SSW 13/0 (15/0) 29(84) 80 1020 / 30.13
 16:55 Mostly Cloudy  SSW 16/0 (18/0) 30(86) 73 1020 / 30.13
 15:55 Mostly Cloudy  SSW 16/0 (18/0) 30(86) 73 1020 / 30.13
 14:55 Mostly Cloudy  SSW 15/0 (17/0) 30(87) 71 1021 / 30.14
 13:55 Mostly Cloudy  SSW 16/0 (18/0) 30(86) 74 1021 / 30.15
 12:55 Mostly Cloudy  SSW 16/0 (18/0) 30(86) 74 1021 / 30.16
 11:55 Partly Cloudy  SSW 18/0 (21/0) 30(85) 72 1021 / 30.16
 10:55 Mostly Cloudy  SSW 16/0 (18/0) 29(85) 78 1021 / 30.16
 09:55 Mostly Cloudy Showers SSW 16/0 (18/0) 29(84) 78 1021 / 30.15
 09:10 Mostly Cloudy Showers SW 13/0 (15/0) 28(82) 86 1021 / 30.16
 08:55 Mostly Cloudy Showers SSW 17/0 (20/0) 26(79) 86 1021 / 30.16
 07:55 Mostly Cloudy Showers SSW 13/0 (15/0) 28(83) 83 1021 / 30.15
 06:55 Partly Cloudy Showers SSW 13/0 (15/0) 27(81) 80 1020 / 30.13
 05:55 Partly Cloudy Showers SW 9/0 (10/0) 27(80) 84 1020 / 30.12
Island AWOS